Terminal Aerodrome Forecast
Issued by NWS

Current Version | Previous Version | Text Only | Print | Product List | Glossary On
Versions: 1 2 3 4 5 6 7 8 9 10 11 12 13 14 15 16 17 18 19 20 21 22 23 24 25 26 27 28 29 30
000 FTUS41 KOKX 242149 AAB TAFGON TAF AMD KGON 242149Z 2422/2518 14007KT P6SM BKN080 BKN100 FM250200 07008KT P6SM -RA BKN060 BKN100 FM250600 06015KT 6SM -RA BR BKN015 OVC040 FM250900 05016G25KT 4SM -RA BR BKN007 OVC010 FM251500 07018G25KT 2SM -RA BR OVC007=

USA.gov is the U.S. government's official web portal to all federal, state and local government web resources and services.